sensor_id;sensor_type;location;lat;lon;timestamp;P1;durP1;ratioP1;P2;durP2;ratioP2
32491;SDS011;20605;49.742;18.802;2022-10-29T00:00:41;8.75;;;6.58;;
32491;SDS011;20605;49.742;18.802;2022-10-29T00:03:08;7.72;;;6.12;;
32491;SDS011;20605;49.742;18.802;2022-10-29T00:05:35;7.97;;;6.42;;
32491;SDS011;20605;49.742;18.802;2022-10-29T00:08:01;8.45;;;6.53;;
32491;SDS011;20605;49.742;18.802;2022-10-29T00:10:28;7.92;;;5.80;;
32491;SDS011;20605;49.742;18.802;2022-10-29T00:12:55;8.98;;;6.50;;
32491;SDS011;20605;49.742;18.802;2022-10-29T00:15:28;8.53;;;6.20;;
32491;SDS011;20605;49.742;18.802;2022-10-29T00:17:55;8.93;;;6.35;;
32491;SDS011;20605;49.742;18.802;2022-10-29T00:20:21;8.35;;;6.22;;
32491;SDS011;20605;49.742;18.802;2022-10-29T00:22:49;6.62;;;5.92;;
32491;SDS011;20605;49.742;18.802;2022-10-29T00:25:19;8.43;;;5.95;;
32491;SDS011;20605;49.742;18.802;2022-10-29T00:27:46;8.60;;;6.05;;
32491;SDS011;20605;49.742;18.802;2022-10-29T00:30:13;9.13;;;5.45;;
32491;SDS011;20605;49.742;18.802;2022-10-29T00:32:39;9.30;;;6.22;;
32491;SDS011;20605;49.742;18.802;2022-10-29T00:35:06;10.45;;;6.05;;
32491;SDS011;20605;49.742;18.802;2022-10-29T00:37:33;8.20;;;5.97;;
32491;SDS011;20605;49.742;18.802;2022-10-29T00:40:03;8.18;;;5.90;;
32491;SDS011;20605;49.742;18.802;2022-10-29T00:42:30;7.75;;;5.55;;
32491;SDS011;20605;49.742;18.802;2022-10-29T00:44:56;8.78;;;5.70;;
32491;SDS011;20605;49.742;18.802;2022-10-29T00:47:27;8.00;;;6.58;;
32491;SDS011;20605;49.742;18.802;2022-10-29T00:49:58;9.35;;;6.47;;
32491;SDS011;20605;49.742;18.802;2022-10-29T00:52:31;8.03;;;6.10;;
32491;SDS011;20605;49.742;18.802;2022-10-29T00:55:02;8.68;;;5.58;;
32491;SDS011;20605;49.742;18.802;2022-10-29T00:57:35;7.17;;;5.40;;
32491;SDS011;20605;49.742;18.802;2022-10-29T01:00:05;11.05;;;5.90;;
32491;SDS011;20605;49.742;18.802;2022-10-29T01:02:33;9.55;;;6.50;;
32491;SDS011;20605;49.742;18.802;2022-10-29T01:05:02;7.47;;;6.28;;
32491;SDS011;20605;49.742;18.802;2022-10-29T01:07:29;10.23;;;5.83;;
32491;SDS011;20605;49.742;18.802;2022-10-29T01:09:56;9.10;;;6.12;;
32491;SDS011;20605;49.742;18.802;2022-10-29T01:15:26;9.03;;;6.33;;
32491;SDS011;20605;49.742;18.802;2022-10-29T01:29:44;6.95;;;5.90;;
32491;SDS011;20605;49.742;18.802;2022-10-29T01:33:05;6.95;;;5.70;;
32491;SDS011;20605;49.742;18.802;2022-10-29T01:35:04;9.48;;;6.47;;
32491;SDS011;20605;49.742;18.802;2022-10-29T01:40:48;11.97;;;6.42;;
32491;SDS011;20605;49.742;18.802;2022-10-29T01:43:35;7.42;;;6.10;;
32491;SDS011;20605;49.742;18.802;2022-10-29T01:48:49;8.35;;;6.20;;
32491;SDS011;20605;49.742;18.802;2022-10-29T01:51:23;9.45;;;5.60;;
32491;SDS011;20605;49.742;18.802;2022-10-29T01:53:56;8.20;;;5.78;;
32491;SDS011;20605;49.742;18.802;2022-10-29T01:56:26;9.18;;;5.75;;
32491;SDS011;20605;49.742;18.802;2022-10-29T01:58:54;8.43;;;5.67;;
32491;SDS011;20605;49.742;18.802;2022-10-29T02:01:31;7.80;;;5.75;;
32491;SDS011;20605;49.742;18.802;2022-10-29T02:07:01;7.62;;;5.42;;
32491;SDS011;20605;49.742;18.802;2022-10-29T02:09:57;9.93;;;6.72;;
32491;SDS011;20605;49.742;18.802;2022-10-29T02:12:50;8.60;;;6.28;;
32491;SDS011;20605;49.742;18.802;2022-10-29T02:17:59;8.20;;;6.20;;
32491;SDS011;20605;49.742;18.802;2022-10-29T02:20:28;9.53;;;6.03;;
32491;SDS011;20605;49.742;18.802;2022-10-29T02:22:55;10.32;;;6.22;;
32491;SDS011;20605;49.742;18.802;2022-10-29T02:25:22;7.60;;;6.15;;
32491;SDS011;20605;49.742;18.802;2022-10-29T02:27:49;9.65;;;5.97;;
32491;SDS011;20605;49.742;18.802;2022-10-29T02:30:16;8.53;;;6.65;;
32491;SDS011;20605;49.742;18.802;2022-10-29T02:32:42;7.17;;;5.50;;
32491;SDS011;20605;49.742;18.802;2022-10-29T02:35:09;7.78;;;5.58;;
32491;SDS011;20605;49.742;18.802;2022-10-29T02:37:36;9.05;;;5.90;;
32491;SDS011;20605;49.742;18.802;2022-10-29T02:40:03;7.87;;;5.85;;
32491;SDS011;20605;49.742;18.802;2022-10-29T02:42:30;8.95;;;6.10;;
32491;SDS011;20605;49.742;18.802;2022-10-29T02:44:57;7.03;;;6.15;;
32491;SDS011;20605;49.742;18.802;2022-10-29T02:47:24;9.50;;;6.22;;
32491;SDS011;20605;49.742;18.802;2022-10-29T02:49:50;9.55;;;5.78;;
32491;SDS011;20605;49.742;18.802;2022-10-29T02:52:17;8.58;;;5.42;;
32491;SDS011;20605;49.742;18.802;2022-10-29T02:54:44;7.50;;;5.35;;
32491;SDS011;20605;49.742;18.802;2022-10-29T02:57:11;7.25;;;5.15;;
32491;SDS011;20605;49.742;18.802;2022-10-29T02:59:37;8.65;;;6.08;;
32491;SDS011;20605;49.742;18.802;2022-10-29T03:02:04;6.50;;;5.60;;
32491;SDS011;20605;49.742;18.802;2022-10-29T03:04:31;8.10;;;5.72;;
32491;SDS011;20605;49.742;18.802;2022-10-29T03:06:58;7.03;;;5.55;;
32491;SDS011;20605;49.742;18.802;2022-10-29T03:09:26;7.67;;;5.30;;
32491;SDS011;20605;49.742;18.802;2022-10-29T03:11:53;6.65;;;5.55;;
32491;SDS011;20605;49.742;18.802;2022-10-29T03:14:20;7.72;;;5.55;;
32491;SDS011;20605;49.742;18.802;2022-10-29T03:16:47;7.00;;;5.67;;
32491;SDS011;20605;49.742;18.802;2022-10-29T03:19:13;9.28;;;5.25;;
32491;SDS011;20605;49.742;18.802;2022-10-29T03:21:40;9.65;;;5.67;;
32491;SDS011;20605;49.742;18.802;2022-10-29T03:24:07;6.33;;;4.90;;
32491;SDS011;20605;49.742;18.802;2022-10-29T03:26:33;7.42;;;5.28;;
32491;SDS011;20605;49.742;18.802;2022-10-29T03:29:00;6.53;;;5.15;;
32491;SDS011;20605;49.742;18.802;2022-10-29T03:31:29;7.17;;;5.78;;
32491;SDS011;20605;49.742;18.802;2022-10-29T03:33:56;6.80;;;4.95;;
32491;SDS011;20605;49.742;18.802;2022-10-29T03:36:23;10.23;;;6.22;;
32491;SDS011;20605;49.742;18.802;2022-10-29T03:38:49;7.58;;;5.50;;
32491;SDS011;20605;49.742;18.802;2022-10-29T03:41:16;7.08;;;5.30;;
32491;SDS011;20605;49.742;18.802;2022-10-29T03:43:43;11.00;;;7.22;;
32491;SDS011;20605;49.742;18.802;2022-10-29T03:46:10;9.78;;;5.50;;
32491;SDS011;20605;49.742;18.802;2022-10-29T03:48:36;6.60;;;4.75;;
32491;SDS011;20605;49.742;18.802;2022-10-29T03:51:04;7.00;;;4.62;;
32491;SDS011;20605;49.742;18.802;2022-10-29T03:53:32;6.33;;;4.95;;
32491;SDS011;20605;49.742;18.802;2022-10-29T03:56:01;7.20;;;4.87;;
32491;SDS011;20605;49.742;18.802;2022-10-29T03:58:28;6.12;;;5.17;;
32491;SDS011;20605;49.742;18.802;2022-10-29T04:01:06;5.28;;;4.50;;
32491;SDS011;20605;49.742;18.802;2022-10-29T04:03:34;8.55;;;5.12;;
32491;SDS011;20605;49.742;18.802;2022-10-29T04:06:14;7.20;;;4.90;;
32491;SDS011;20605;49.742;18.802;2022-10-29T04:08:39;7.70;;;5.37;;
32491;SDS011;20605;49.742;18.802;2022-10-29T04:11:07;8.23;;;5.08;;
32491;SDS011;20605;49.742;18.802;2022-10-29T04:13:38;7.40;;;5.45;;
32491;SDS011;20605;49.742;18.802;2022-10-29T04:16:05;7.22;;;4.95;;
32491;SDS011;20605;49.742;18.802;2022-10-29T04:18:32;11.05;;;4.75;;
32491;SDS011;20605;49.742;18.802;2022-10-29T04:20:59;6.50;;;4.97;;
32491;SDS011;20605;49.742;18.802;2022-10-29T04:23:27;6.65;;;4.97;;
32491;SDS011;20605;49.742;18.802;2022-10-29T04:25:55;7.03;;;4.87;;
32491;SDS011;20605;49.742;18.802;2022-10-29T04:28:22;6.60;;;4.83;;
32491;SDS011;20605;49.742;18.802;2022-10-29T04:30:50;6.85;;;4.80;;
32491;SDS011;20605;49.742;18.802;2022-10-29T04:33:17;8.08;;;4.65;;
32491;SDS011;20605;49.742;18.802;2022-10-29T04:35:49;5.72;;;5.00;;
32491;SDS011;20605;49.742;18.802;2022-10-29T04:38:19;7.20;;;5.55;;
32491;SDS011;20605;49.742;18.802;2022-10-29T04:40:46;7.37;;;5.65;;
32491;SDS011;20605;49.742;18.802;2022-10-29T04:43:13;8.40;;;5.97;;
32491;SDS011;20605;49.742;18.802;2022-10-29T04:45:40;8.88;;;5.75;;
32491;SDS011;20605;49.742;18.802;2022-10-29T04:48:06;7.67;;;5.25;;
32491;SDS011;20605;49.742;18.802;2022-10-29T04:50:35;6.03;;;4.90;;
32491;SDS011;20605;49.742;18.802;2022-10-29T04:53:04;8.15;;;5.65;;
32491;SDS011;20605;49.742;18.802;2022-10-29T04:55:34;6.10;;;5.45;;
32491;SDS011;20605;49.742;18.802;2022-10-29T04:58:03;8.35;;;5.95;;
32491;SDS011;20605;49.742;18.802;2022-10-29T05:00:38;6.97;;;5.67;;
32491;SDS011;20605;49.742;18.802;2022-10-29T05:03:06;6.67;;;5.55;;
32491;SDS011;20605;49.742;18.802;2022-10-29T05:05:32;9.50;;;5.70;;
32491;SDS011;20605;49.742;18.802;2022-10-29T05:08:02;9.30;;;6.08;;
32491;SDS011;20605;49.742;18.802;2022-10-29T05:10:34;7.15;;;5.70;;
32491;SDS011;20605;49.742;18.802;2022-10-29T05:13:05;8.53;;;5.60;;
32491;SDS011;20605;49.742;18.802;2022-10-29T05:15:34;6.15;;;5.45;;
32491;SDS011;20605;49.742;18.802;2022-10-29T05:18:02;7.03;;;5.08;;
32491;SDS011;20605;49.742;18.802;2022-10-29T05:20:34;10.32;;;5.25;;
32491;SDS011;20605;49.742;18.802;2022-10-29T05:23:13;6.60;;;5.60;;
32491;SDS011;20605;49.742;18.802;2022-10-29T05:25:40;10.15;;;6.37;;
32491;SDS011;20605;49.742;18.802;2022-10-29T05:28:08;21.05;;;11.22;;
32491;SDS011;20605;49.742;18.802;2022-10-29T05:30:37;51.35;;;19.52;;
32491;SDS011;20605;49.742;18.802;2022-10-29T05:33:06;71.97;;;24.82;;
32491;SDS011;20605;49.742;18.802;2022-10-29T05:35:34;16.40;;;10.60;;
32491;SDS011;20605;49.742;18.802;2022-10-29T05:38:01;9.25;;;6.03;;
32491;SDS011;20605;49.742;18.802;2022-10-29T05:40:28;27.40;;;14.70;;
32491;SDS011;20605;49.742;18.802;2022-10-29T05:42:55;31.30;;;15.93;;
32491;SDS011;20605;49.742;18.802;2022-10-29T05:45:22;10.25;;;6.45;;
32491;SDS011;20605;49.742;18.802;2022-10-29T05:47:55;12.78;;;9.65;;
32491;SDS011;20605;49.742;18.802;2022-10-29T05:50:26;13.20;;;7.35;;
32491;SDS011;20605;49.742;18.802;2022-10-29T05:52:55;9.18;;;6.83;;
32491;SDS011;20605;49.742;18.802;2022-10-29T05:55:30;7.35;;;6.12;;
32491;SDS011;20605;49.742;18.802;2022-10-29T05:58:00;7.12;;;5.53;;
32491;SDS011;20605;49.742;18.802;2022-10-29T06:00:32;7.47;;;6.33;;
32491;SDS011;20605;49.742;18.802;2022-10-29T06:03:01;8.10;;;5.22;;
32491;SDS011;20605;49.742;18.802;2022-10-29T06:05:28;10.08;;;4.80;;
32491;SDS011;20605;49.742;18.802;2022-10-29T06:07:58;9.08;;;6.35;;
32491;SDS011;20605;49.742;18.802;2022-10-29T06:10:27;7.75;;;6.37;;
32491;SDS011;20605;49.742;18.802;2022-10-29T06:12:55;9.33;;;5.87;;
32491;SDS011;20605;49.742;18.802;2022-10-29T06:15:21;8.43;;;6.15;;
32491;SDS011;20605;49.742;18.802;2022-10-29T06:17:48;9.30;;;7.37;;
32491;SDS011;20605;49.742;18.802;2022-10-29T06:20:16;7.62;;;5.67;;
32491;SDS011;20605;49.742;18.802;2022-10-29T06:22:46;8.45;;;5.05;;
32491;SDS011;20605;49.742;18.802;2022-10-29T06:25:16;7.87;;;4.50;;
32491;SDS011;20605;49.742;18.802;2022-10-29T06:27:43;8.65;;;5.35;;
32491;SDS011;20605;49.742;18.802;2022-10-29T06:30:09;8.78;;;5.35;;
32491;SDS011;20605;49.742;18.802;2022-10-29T06:32:37;10.00;;;6.85;;
32491;SDS011;20605;49.742;18.802;2022-10-29T06:35:04;9.65;;;6.60;;
32491;SDS011;20605;49.742;18.802;2022-10-29T06:37:31;8.13;;;5.35;;
32491;SDS011;20605;49.742;18.802;2022-10-29T06:40:01;8.33;;;5.37;;
32491;SDS011;20605;49.742;18.802;2022-10-29T06:42:29;7.58;;;5.22;;
32491;SDS011;20605;49.742;18.802;2022-10-29T06:44:55;9.48;;;5.65;;
32491;SDS011;20605;49.742;18.802;2022-10-29T06:47:22;8.08;;;5.30;;
32491;SDS011;20605;49.742;18.802;2022-10-29T06:49:49;12.07;;;6.17;;
32491;SDS011;20605;49.742;18.802;2022-10-29T06:52:15;9.98;;;7.15;;
32491;SDS011;20605;49.742;18.802;2022-10-29T06:54:42;7.55;;;5.08;;
32491;SDS011;20605;49.742;18.802;2022-10-29T06:57:09;9.60;;;5.00;;
32491;SDS011;20605;49.742;18.802;2022-10-29T06:59:35;7.92;;;4.92;;
32491;SDS011;20605;49.742;18.802;2022-10-29T07:02:02;8.38;;;5.08;;
32491;SDS011;20605;49.742;18.802;2022-10-29T07:04:29;6.85;;;4.80;;
32491;SDS011;20605;49.742;18.802;2022-10-29T07:06:55;6.30;;;4.78;;
32491;SDS011;20605;49.742;18.802;2022-10-29T07:09:25;4.87;;;4.05;;
32491;SDS011;20605;49.742;18.802;2022-10-29T07:11:51;6.05;;;4.42;;
32491;SDS011;20605;49.742;18.802;2022-10-29T07:14:18;4.80;;;4.00;;
32491;SDS011;20605;49.742;18.802;2022-10-29T07:16:45;8.03;;;4.40;;
32491;SDS011;20605;49.742;18.802;2022-10-29T07:19:12;8.35;;;5.17;;
32491;SDS011;20605;49.742;18.802;2022-10-29T07:21:40;6.45;;;4.83;;
32491;SDS011;20605;49.742;18.802;2022-10-29T07:24:07;7.70;;;4.70;;
32491;SDS011;20605;49.742;18.802;2022-10-29T07:26:34;12.68;;;8.48;;
32491;SDS011;20605;49.742;18.802;2022-10-29T07:29:03;9.18;;;5.78;;
32491;SDS011;20605;49.742;18.802;2022-10-29T07:31:29;7.28;;;4.28;;
32491;SDS011;20605;49.742;18.802;2022-10-29T07:33:57;5.72;;;4.28;;
32491;SDS011;20605;49.742;18.802;2022-10-29T07:36:23;4.97;;;4.12;;
32491;SDS011;20605;49.742;18.802;2022-10-29T07:38:50;9.10;;;3.60;;
32491;SDS011;20605;49.742;18.802;2022-10-29T07:41:16;4.90;;;4.03;;
32491;SDS011;20605;49.742;18.802;2022-10-29T07:43:43;6.35;;;3.98;;
32491;SDS011;20605;49.742;18.802;2022-10-29T07:46:10;5.75;;;3.95;;
32491;SDS011;20605;49.742;18.802;2022-10-29T07:48:36;5.83;;;4.25;;
32491;SDS011;20605;49.742;18.802;2022-10-29T07:51:03;4.83;;;4.17;;
32491;SDS011;20605;49.742;18.802;2022-10-29T07:53:30;5.08;;;4.65;;
32491;SDS011;20605;49.742;18.802;2022-10-29T07:55:57;6.05;;;4.78;;
32491;SDS011;20605;49.742;18.802;2022-10-29T07:58:24;5.25;;;4.75;;
32491;SDS011;20605;49.742;18.802;2022-10-29T08:00:51;5.15;;;4.65;;
32491;SDS011;20605;49.742;18.802;2022-10-29T08:03:19;5.28;;;4.65;;
32491;SDS011;20605;49.742;18.802;2022-10-29T08:05:45;6.80;;;4.92;;
32491;SDS011;20605;49.742;18.802;2022-10-29T08:08:14;5.20;;;4.80;;
32491;SDS011;20605;49.742;18.802;2022-10-29T08:10:42;8.40;;;7.58;;
32491;SDS011;20605;49.742;18.802;2022-10-29T08:13:10;9.28;;;6.25;;
32491;SDS011;20605;49.742;18.802;2022-10-29T08:15:36;7.95;;;7.03;;
32491;SDS011;20605;49.742;18.802;2022-10-29T08:18:08;6.03;;;5.45;;
32491;SDS011;20605;49.742;18.802;2022-10-29T08:20:37;10.05;;;9.08;;
32491;SDS011;20605;49.742;18.802;2022-10-29T08:23:04;6.03;;;5.12;;
32491;SDS011;20605;49.742;18.802;2022-10-29T08:25:30;5.53;;;4.67;;
32491;SDS011;20605;49.742;18.802;2022-10-29T08:28:01;7.50;;;5.60;;
32491;SDS011;20605;49.742;18.802;2022-10-29T08:30:29;5.90;;;5.05;;
32491;SDS011;20605;49.742;18.802;2022-10-29T08:32:57;6.35;;;5.10;;
32491;SDS011;20605;49.742;18.802;2022-10-29T08:35:24;5.80;;;5.20;;
32491;SDS011;20605;49.742;18.802;2022-10-29T08:37:52;5.72;;;5.08;;
32491;SDS011;20605;49.742;18.802;2022-10-29T08:45:55;7.12;;;5.00;;
32491;SDS011;20605;49.742;18.802;2022-10-29T08:48:34;4.85;;;4.35;;
32491;SDS011;20605;49.742;18.802;2022-10-29T08:54:02;6.55;;;4.50;;
32491;SDS011;20605;49.742;18.802;2022-10-29T08:56:36;5.00;;;4.60;;
32491;SDS011;20605;49.742;18.802;2022-10-29T09:01:41;4.87;;;4.40;;
32491;SDS011;20605;49.742;18.802;2022-10-29T09:04:17;4.97;;;4.62;;
32491;SDS011;20605;49.742;18.802;2022-10-29T09:07:08;6.10;;;5.00;;
32491;SDS011;20605;49.742;18.802;2022-10-29T09:10:00;6.30;;;4.83;;
32491;SDS011;20605;49.742;18.802;2022-10-29T09:16:25;5.15;;;4.75;;
32491;SDS011;20605;49.742;18.802;2022-10-29T09:30:39;5.45;;;4.67;;
32491;SDS011;20605;49.742;18.802;2022-10-29T09:33:10;5.08;;;4.67;;
32491;SDS011;20605;49.742;18.802;2022-10-29T09:35:44;5.05;;;4.53;;
32491;SDS011;20605;49.742;18.802;2022-10-29T09:38:21;8.40;;;7.20;;
32491;SDS011;20605;49.742;18.802;2022-10-29T09:41:03;5.00;;;4.47;;
32491;SDS011;20605;49.742;18.802;2022-10-29T09:43:52;6.10;;;5.03;;
32491;SDS011;20605;49.742;18.802;2022-10-29T09:51:57;8.45;;;7.47;;
32491;SDS011;20605;49.742;18.802;2022-10-29T09:54:34;6.33;;;5.65;;
32491;SDS011;20605;49.742;18.802;2022-10-29T09:57:01;9.65;;;5.37;;
32491;SDS011;20605;49.742;18.802;2022-10-29T10:05:03;6.35;;;5.03;;
32491;SDS011;20605;49.742;18.802;2022-10-29T10:07:40;6.15;;;4.78;;
32491;SDS011;20605;49.742;18.802;2022-10-29T10:10:28;6.80;;;4.70;;
32491;SDS011;20605;49.742;18.802;2022-10-29T10:12:48;6.03;;;4.60;;
32491;SDS011;20605;49.742;18.802;2022-10-29T10:15:17;5.58;;;4.83;;
32491;SDS011;20605;49.742;18.802;2022-10-29T10:25:52;9.40;;;5.47;;
32491;SDS011;20605;49.742;18.802;2022-10-29T10:28:24;6.80;;;6.10;;
32491;SDS011;20605;49.742;18.802;2022-10-29T10:31:13;9.28;;;6.40;;
32491;SDS011;20605;49.742;18.802;2022-10-29T10:33:52;8.15;;;6.17;;
32491;SDS011;20605;49.742;18.802;2022-10-29T10:36:21;7.92;;;6.55;;
32491;SDS011;20605;49.742;18.802;2022-10-29T10:38:51;8.88;;;6.70;;
32491;SDS011;20605;49.742;18.802;2022-10-29T10:41:23;6.72;;;5.53;;
32491;SDS011;20605;49.742;18.802;2022-10-29T10:43:59;9.75;;;5.95;;
32491;SDS011;20605;49.742;18.802;2022-10-29T10:51:44;9.65;;;7.50;;
32491;SDS011;20605;49.742;18.802;2022-10-29T10:57:16;8.18;;;5.65;;
32491;SDS011;20605;49.742;18.802;2022-10-29T10:59:53;10.53;;;6.50;;
32491;SDS011;20605;49.742;18.802;2022-10-29T11:05:33;8.03;;;6.37;;
32491;SDS011;20605;49.742;18.802;2022-10-29T11:08:21;9.83;;;6.58;;
32491;SDS011;20605;49.742;18.802;2022-10-29T11:10:57;7.78;;;5.83;;
32491;SDS011;20605;49.742;18.802;2022-10-29T11:13:28;6.25;;;5.65;;
32491;SDS011;20605;49.742;18.802;2022-10-29T11:15:57;7.35;;;5.28;;
32491;SDS011;20605;49.742;18.802;2022-10-29T11:18:51;8.05;;;5.92;;
32491;SDS011;20605;49.742;18.802;2022-10-29T11:21:34;9.38;;;6.12;;
32491;SDS011;20605;49.742;18.802;2022-10-29T11:24:22;7.50;;;6.08;;
32491;SDS011;20605;49.742;18.802;2022-10-29T11:26:59;7.10;;;5.70;;
32491;SDS011;20605;49.742;18.802;2022-10-29T11:32:16;10.58;;;6.40;;
32491;SDS011;20605;49.742;18.802;2022-10-29T11:38:51;11.40;;;6.30;;
32491;SDS011;20605;49.742;18.802;2022-10-29T11:41:01;9.15;;;6.47;;
32491;SDS011;20605;49.742;18.802;2022-10-29T11:43:49;11.05;;;6.62;;
32491;SDS011;20605;49.742;18.802;2022-10-29T11:46:27;8.43;;;6.67;;
32491;SDS011;20605;49.742;18.802;2022-10-29T11:52:10;7.72;;;6.37;;
32491;SDS011;20605;49.742;18.802;2022-10-29T11:55:03;10.43;;;5.65;;
32491;SDS011;20605;49.742;18.802;2022-10-29T11:57:41;9.20;;;6.35;;
32491;SDS011;20605;49.742;18.802;2022-10-29T12:00:24;7.00;;;5.55;;
32491;SDS011;20605;49.742;18.802;2022-10-29T12:05:55;10.88;;;7.33;;
32491;SDS011;20605;49.742;18.802;2022-10-29T12:14:37;12.50;;;8.43;;
32491;SDS011;20605;49.742;18.802;2022-10-29T12:20:46;9.63;;;8.63;;
32491;SDS011;20605;49.742;18.802;2022-10-29T12:23:32;9.33;;;8.33;;
32491;SDS011;20605;49.742;18.802;2022-10-29T12:26:41;14.13;;;9.58;;
32491;SDS011;20605;49.742;18.802;2022-10-29T12:31:55;11.90;;;8.80;;
32491;SDS011;20605;49.742;18.802;2022-10-29T12:34:32;10.43;;;9.28;;
32491;SDS011;20605;49.742;18.802;2022-10-29T12:37:09;12.20;;;9.95;;
32491;SDS011;20605;49.742;18.802;2022-10-29T12:39:53;13.53;;;9.30;;
32491;SDS011;20605;49.742;18.802;2022-10-29T12:42:26;11.70;;;9.65;;
32491;SDS011;20605;49.742;18.802;2022-10-29T12:50:29;13.10;;;10.75;;
32491;SDS011;20605;49.742;18.802;2022-10-29T12:53:22;14.80;;;11.78;;
32491;SDS011;20605;49.742;18.802;2022-10-29T12:55:58;12.75;;;10.40;;
32491;SDS011;20605;49.742;18.802;2022-10-29T12:58:42;12.78;;;9.75;;
32491;SDS011;20605;49.742;18.802;2022-10-29T13:03:59;12.95;;;10.90;;
32491;SDS011;20605;49.742;18.802;2022-10-29T13:09:24;15.03;;;12.33;;
32491;SDS011;20605;49.742;18.802;2022-10-29T13:12:04;13.68;;;11.12;;
32491;SDS011;20605;49.742;18.802;2022-10-29T13:17:27;15.45;;;12.10;;
32491;SDS011;20605;49.742;18.802;2022-10-29T13:20:04;14.78;;;10.80;;
32491;SDS011;20605;49.742;18.802;2022-10-29T13:22:56;14.20;;;11.88;;
32491;SDS011;20605;49.742;18.802;2022-10-29T13:30:41;14.23;;;12.00;;
32491;SDS011;20605;49.742;18.802;2022-10-29T13:41:34;19.00;;;14.13;;
32491;SDS011;20605;49.742;18.802;2022-10-29T13:44:13;18.57;;;15.15;;
32491;SDS011;20605;49.742;18.802;2022-10-29T13:46:55;17.85;;;14.13;;
32491;SDS011;20605;49.742;18.802;2022-10-29T13:49:45;17.12;;;14.43;;
32491;SDS011;20605;49.742;18.802;2022-10-29T13:52:13;16.37;;;14.68;;
32491;SDS011;20605;49.742;18.802;2022-10-29T13:54:49;21.87;;;16.97;;
32491;SDS011;20605;49.742;18.802;2022-10-29T13:57:32;15.40;;;13.80;;
32491;SDS011;20605;49.742;18.802;2022-10-29T14:00:21;28.57;;;16.02;;
32491;SDS011;20605;49.742;18.802;2022-10-29T14:05:49;19.32;;;13.40;;
32491;SDS011;20605;49.742;18.802;2022-10-29T14:08:52;22.07;;;12.82;;
32491;SDS011;20605;49.742;18.802;2022-10-29T14:11:11;21.60;;;12.95;;
32491;SDS011;20605;49.742;18.802;2022-10-29T14:13:52;32.35;;;16.12;;
32491;SDS011;20605;49.742;18.802;2022-10-29T14:16:23;19.57;;;15.43;;
32491;SDS011;20605;49.742;18.802;2022-10-29T14:18:54;27.40;;;21.95;;
32491;SDS011;20605;49.742;18.802;2022-10-29T14:21:25;27.40;;;20.52;;
32491;SDS011;20605;49.742;18.802;2022-10-29T14:24:00;27.60;;;23.05;;
32491;SDS011;20605;49.742;18.802;2022-10-29T14:26:36;66.65;;;45.58;;
32491;SDS011;20605;49.742;18.802;2022-10-29T14:29:22;41.75;;;31.87;;
32491;SDS011;20605;49.742;18.802;2022-10-29T14:32:06;29.05;;;22.73;;
32491;SDS011;20605;49.742;18.802;2022-10-29T14:34:40;27.00;;;21.12;;
32491;SDS011;20605;49.742;18.802;2022-10-29T14:40:04;22.25;;;17.55;;
32491;SDS011;20605;49.742;18.802;2022-10-29T14:42:42;22.80;;;16.55;;
32491;SDS011;20605;49.742;18.802;2022-10-29T14:45:19;21.20;;;15.95;;
32491;SDS011;20605;49.742;18.802;2022-10-29T14:47:56;19.60;;;14.40;;
32491;SDS011;20605;49.742;18.802;2022-10-29T14:50:28;21.12;;;15.70;;
32491;SDS011;20605;49.742;18.802;2022-10-29T14:53:00;21.25;;;15.10;;
32491;SDS011;20605;49.742;18.802;2022-10-29T14:55:30;22.48;;;18.77;;
32491;SDS011;20605;49.742;18.802;2022-10-29T15:00:36;20.10;;;17.23;;
32491;SDS011;20605;49.742;18.802;2022-10-29T15:03:05;26.17;;;20.27;;
32491;SDS011;20605;49.742;18.802;2022-10-29T15:05:33;23.55;;;18.77;;
32491;SDS011;20605;49.742;18.802;2022-10-29T15:10:47;33.23;;;25.40;;
32491;SDS011;20605;49.742;18.802;2022-10-29T15:15:54;28.90;;;20.95;;
32491;SDS011;20605;49.742;18.802;2022-10-29T15:18:33;23.77;;;17.98;;
32491;SDS011;20605;49.742;18.802;2022-10-29T15:21:03;41.85;;;23.85;;
32491;SDS011;20605;49.742;18.802;2022-10-29T15:23:42;34.53;;;21.27;;
32491;SDS011;20605;49.742;18.802;2022-10-29T15:26:14;37.33;;;26.02;;
32491;SDS011;20605;49.742;18.802;2022-10-29T15:28:46;61.45;;;37.45;;
32491;SDS011;20605;49.742;18.802;2022-10-29T15:31:20;46.50;;;29.85;;
32491;SDS011;20605;49.742;18.802;2022-10-29T15:33:56;33.98;;;24.77;;
32491;SDS011;20605;49.742;18.802;2022-10-29T15:36:44;29.45;;;18.32;;
32491;SDS011;20605;49.742;18.802;2022-10-29T15:39:17;29.63;;;19.73;;
32491;SDS011;20605;49.742;18.802;2022-10-29T15:41:54;41.23;;;26.05;;
32491;SDS011;20605;49.742;18.802;2022-10-29T15:44:25;53.00;;;27.85;;
32491;SDS011;20605;49.742;18.802;2022-10-29T15:47:00;41.80;;;26.02;;
32491;SDS011;20605;49.742;18.802;2022-10-29T15:49:30;66.67;;;52.00;;
32491;SDS011;20605;49.742;18.802;2022-10-29T15:51:57;57.80;;;40.08;;
32491;SDS011;20605;49.742;18.802;2022-10-29T15:54:25;74.32;;;40.40;;
32491;SDS011;20605;49.742;18.802;2022-10-29T15:56:53;133.47;;;62.03;;
32491;SDS011;20605;49.742;18.802;2022-10-29T15:59:21;59.53;;;36.05;;
32491;SDS011;20605;49.742;18.802;2022-10-29T16:01:50;47.58;;;33.42;;
32491;SDS011;20605;49.742;18.802;2022-10-29T16:04:16;44.00;;;35.05;;
32491;SDS011;20605;49.742;18.802;2022-10-29T16:06:43;42.58;;;31.02;;
32491;SDS011;20605;49.742;18.802;2022-10-29T16:09:15;39.20;;;31.33;;
32491;SDS011;20605;49.742;18.802;2022-10-29T16:11:42;45.65;;;36.98;;
32491;SDS011;20605;49.742;18.802;2022-10-29T16:14:09;63.33;;;46.35;;
32491;SDS011;20605;49.742;18.802;2022-10-29T16:16:36;48.23;;;35.05;;
32491;SDS011;20605;49.742;18.802;2022-10-29T16:19:03;44.03;;;32.15;;
32491;SDS011;20605;49.742;18.802;2022-10-29T16:21:30;41.30;;;29.55;;
32491;SDS011;20605;49.742;18.802;2022-10-29T16:23:56;40.78;;;29.40;;
32491;SDS011;20605;49.742;18.802;2022-10-29T16:26:24;149.80;;;65.55;;
32491;SDS011;20605;49.742;18.802;2022-10-29T16:28:51;192.50;;;82.17;;
32491;SDS011;20605;49.742;18.802;2022-10-29T16:31:20;88.27;;;48.17;;
32491;SDS011;20605;49.742;18.802;2022-10-29T16:33:52;78.72;;;52.45;;
32491;SDS011;20605;49.742;18.802;2022-10-29T16:36:22;66.17;;;47.43;;
32491;SDS011;20605;49.742;18.802;2022-10-29T16:38:49;50.52;;;37.35;;
32491;SDS011;20605;49.742;18.802;2022-10-29T16:41:16;56.90;;;42.23;;
32491;SDS011;20605;49.742;18.802;2022-10-29T16:43:44;58.10;;;43.68;;
32491;SDS011;20605;49.742;18.802;2022-10-29T16:46:11;49.13;;;36.13;;
32491;SDS011;20605;49.742;18.802;2022-10-29T16:48:39;202.30;;;165.62;;
32491;SDS011;20605;49.742;18.802;2022-10-29T16:51:06;130.95;;;107.80;;
32491;SDS011;20605;49.742;18.802;2022-10-29T16:53:33;57.98;;;44.98;;
32491;SDS011;20605;49.742;18.802;2022-10-29T16:56:00;42.17;;;32.17;;
32491;SDS011;20605;49.742;18.802;2022-10-29T16:58:27;43.00;;;29.80;;
32491;SDS011;20605;49.742;18.802;2022-10-29T17:01:06;46.30;;;29.72;;
32491;SDS011;20605;49.742;18.802;2022-10-29T17:03:34;346.98;;;167.95;;
32491;SDS011;20605;49.742;18.802;2022-10-29T17:06:04;416.35;;;221.22;;
32491;SDS011;20605;49.742;18.802;2022-10-29T17:08:33;318.48;;;158.75;;
32491;SDS011;20605;49.742;18.802;2022-10-29T17:11:05;185.25;;;105.30;;
32491;SDS011;20605;49.742;18.802;2022-10-29T17:13:33;148.55;;;85.67;;
32491;SDS011;20605;49.742;18.802;2022-10-29T17:16:07;153.70;;;95.95;;
32491;SDS011;20605;49.742;18.802;2022-10-29T17:18:38;105.47;;;78.72;;